Deinze, Belgium
Current Conditions -  °F | °C
As of 6:55 PM on Tuesday 21 Oct 2014 (Local Time) from EHFS Reporting Station
Scattered Clouds Scattered Clouds  
Wind Chill: 54°   Ceiling: Unl
Heat Index: 54°   Visibility: 6mi
Dew Point: 41°   Wind: 35mph
Humidity: 62%   Direction: 290°WNW
Pressure: 29.68"   Gusts: 51mph
Location:  50.98°N, 3.53°E
Report Text: EHFS 211655Z AUTO 29030G44KT 260V320 9999 FEW036/// SCT044///12/05 Q1005
Loading
Personal Weather Stations






























Interactive Weather Map
Tropical Storm Tracking
New forecast layout! Learn more

10-Day Weather Forecast

Advertisements
Track Severe Weather on mobile